Wednesday, January 17, 2018, 6:31 AM EST
Back to Local

KHFD, Hartford-brainard Airport

Location: Hartford, CT, United States Lat: 41.733
Local Time: 6:31 AM EST (11:31 GMT) Lon: -72.65
Time Zone: US/Eastern Elev: 19 ft

Show me the last for .
Show Decoded

2018-01-17 06:01 METAR KHFD 171101Z 00000KT 1 1/2SM -SN BR BKN005 OVC011 M01/M01 A3030 RMK AO2
                 P0000 T10061011 =
2018-01-17 05:53 METAR KHFD 171053Z 36003KT 2SM -SN BR BKN005 OVC011 M01/M01 A3029 RMK AO2
                 SNE34B47 SLP258 P0001 T10061011 =
2018-01-17 05:44 METAR KHFD 171044Z AUTO 34005KT 3SM BR FEW005 OVC011 M01/M01 A3030 RMK AO2 SNE34
                 P0001 T10061011 =
2018-01-17 05:38 METAR KHFD 171038Z AUTO 35004KT 2 1/2SM BR OVC011 M01/M01 A3030 RMK AO2 SNE34
                 P0001 T10061011 =
2018-01-17 05:13 METAR KHFD 171013Z AUTO 01005KT 1 1/4SM -SN BR FEW005 OVC013 M01/M01 A3029 RMK
                 AO2 P0000 T10061011 =
2018-01-17 05:03 METAR KHFD 171003Z AUTO 01005KT 3/4SM -SN BR FEW005 OVC013 M01/M02 A3029 RMK AO2
                 P0000 T10061017 =
2018-01-17 04:53 METAR KHFD 170953Z AUTO 01004KT 1SM -SN BR FEW005 OVC014 M01/M02 A3029 RMK AO2
                 SLP257 P0003 T10061017 =
2018-01-17 04:43 METAR KHFD 170943Z AUTO 02004KT 3/4SM -SN BR FEW005 OVC012 M01/M02 A3030 RMK AO2
                 P0002 T10061017 =
2018-01-17 04:27 METAR KHFD 170927Z AUTO 01004KT 1SM -SN BR FEW005 OVC012 M01/M02 A3031 RMK AO2
                 P0001 T10061017 =
2018-01-17 04:02 METAR KHFD 170902Z AUTO 02003KT 1SM -SN BR SCT005 BKN009 OVC013 M01/M02 A3031
                 RMK AO2 P0001 T10061017 =
2018-01-17 03:53 METAR KHFD 170853Z AUTO 02004KT 1SM -SN BR BKN004 OVC011 M01/M02 A3032 RMK AO2
                 SLP266 P0003 60003 T10061017 58013 =
2018-01-17 03:36 METAR KHFD 170836Z AUTO 34003KT 3/4SM -SN BR FEW004 OVC013 M01/M02 A3033 RMK AO2
                 P0003 T10061017 =
2018-01-17 03:19 METAR KHFD 170819Z AUTO 34003KT 3/4SM -SN BR OVC013 M01/M02 A3033 RMK AO2 P0001
                 T10061017 =
2018-01-17 02:53 METAR KHFD 170753Z AUTO 35004KT 1SM -SN BR OVC011 M01/M02 A3034 RMK AO2 SNB11
                 SLP272 P0000 T10061017 =
2018-01-17 02:36 METAR KHFD 170736Z AUTO 34004KT 2 1/2SM -SN BR OVC011 M01/M02 A3034 RMK AO2
                 SNB11 P0000 T10061017 =
2018-01-17 02:17 METAR KHFD 170717Z AUTO 35004KT 1 3/4SM -SN BR OVC012 M01/M02 A3034 RMK AO2
                 SNB11 P0000 T10061022 =
2018-01-17 02:01 METAR KHFD 170701Z AUTO 34003KT 6SM BR OVC013 M01/M02 A3034 RMK AO2 T10061022 =
2018-01-17 01:53 METAR KHFD 170653Z AUTO 36003KT 6SM BR OVC015 M01/M02 A3034 RMK AO2 SNB07E29
                 SLP274 P0000 T10061022 =
2018-01-17 01:29 METAR KHFD 170629Z AUTO 00000KT 5SM BR OVC018 M01/M02 A3035 RMK AO2 SNB07E29
                 P0000 T10061022 =
2018-01-17 01:19 METAR KHFD 170619Z AUTO 03003KT 2SM -SN BR OVC018 M01/M03 A3035 RMK AO2 SNB07
                 P0000 T10061028 =
2018-01-17 00:53 METAR KHFD 170553Z AUTO 01003KT 8SM OVC022 M01/M03 A3036 RMK AO2 SNB18E39 SLP279
                 P0000 60000 T10061033 10000 21006 57019 =
2018-01-16 23:53 METAR KHFD 170453Z 35003KT 10SM BKN025 OVC035 00/M04 A3038 RMK AO2 SLP286
                 T00001039 =
2018-01-16 22:53 METAR KHFD 170353Z 02003KT 10SM OVC034 00/M04 A3039 RMK AO2 SLP292 T00001044 =
2018-01-16 21:53 METAR KHFD 170253Z 35003KT 10SM OVC035 00/M04 A3041 RMK AO2 SLP298 T00001044
                 56010 =
2018-01-16 20:53 METAR KHFD 170153Z 00000KT 10SM OVC034 00/M04 A3041 RMK AO2 SLP299 T00001044 =
2018-01-16 19:53 METAR KHFD 170053Z 36003KT 10SM OVC036 00/M05 A3043 RMK AO2 SLP304 T00001050 =
2018-01-16 18:53 METAR KHFD 162353Z 00000KT 10SM OVC034 00/M04 A3044 RMK AO2 SLP308 T00001039
                 55000 =
2018-01-16 17:53 METAR KHFD 162253Z 00000KT 10SM OVC033 00/M04 A3044 RMK AO2 SLP306 T00001039 =
2018-01-16 16:53 METAR KHFD 162153Z 00000KT 10SM BKN036 OVC044 00/M04 A3044 RMK AO2 SLP306
                 T00001039 =
2018-01-16 15:53 METAR KHFD 162053Z 00000KT 10SM OVC037 01/M05 A3044 RMK AO2 SLP309 T00061050
                 58007 =
2018-01-16 14:53 METAR KHFD 161953Z 00000KT 10SM OVC032 A3045 RMK AO2 SLP313 $ =
2018-01-16 13:53 METAR KHFD 161853Z 00000KT 10SM OVC032 A3046 RMK AO2 SLP316 $ =
2018-01-16 12:53 METAR KHFD 161753Z 00000KT 10SM BKN036 OVC080 A3046 RMK AO2 SLP316 60000 58027 $
                 =
2018-01-16 11:53 METAR KHFD 161653Z 00000KT 10SM FEW042 OVC085 A3049 RMK AO2 SLP326 $ =
2018-01-16 11:28 METAR KHFD 161628Z 00000KT 10SM FEW019 SCT042 OVC090 A3051 RMK AO2 $ =
2018-01-16 10:53 METAR KHFD 161553Z 00000KT 10SM OVC017 A3053 RMK AO2 SLP340 $ =
2018-01-16 10:27 METAR KHFD 161527Z 00000KT 10SM OVC015 A3054 RMK AO2 $ =
2018-01-16 10:01 METAR KHFD 161501Z 00000KT 10SM OVC014 A3054 RMK AO2 $ =
2018-01-16 09:53 METAR KHFD 161453Z 12003KT 10SM OVC016 A3054 RMK AO2 SNB12E50 SLP343 P0000 60000
                 50010 $ =
2018-01-16 08:53 METAR KHFD 161353Z COR 19003KT 10SM BKN019 OVC024 M/M11 A3055 RMK AO2 SLP346 $ =
2018-01-16 08:29 METAR KHFD 161329Z COR 20003KT 10SM BKN021 OVC039 M/M12 A3055 RMK AO2 $ =
2018-01-16 07:53 METAR KHFD 161253Z COR 00000KT 10SM OVC039 M/M12 A3053 RMK AO2 SLP340 $ =
2018-01-16 06:53 METAR KHFD 161153Z COR 07003KT 10SM OVC040 M/M12 A3051 RMK AO2 SLP333 58003 $ =

Support USWX by starting your Amazon purchase here.